Deer Lodge (38S)
Deer Lodge, MT
Field Elevation: 4692
Lat: 49°23.27N  Long: 112°45.89W
CTAF/Unicom Freq: 120.0250
   
     For Weather-by-Phone, call 406-846-1177
Weather Advisories
10/21/2014 16:41 Z
Altimeter 29.80" Hg
Wind 310° @ 14 KT
Gusts 22 KT
Visibility 7 SM
Temperature 8° C (46° F)
Dewpoint 5° C (41° F)
Relative Humidity 83%
Density Altitude --
Condensation Altitude 6,100 feet
Wind Chill 4° C (39° F)
  Wind and Runways
Indicated Runway = 31
History
 
 
More Info
All DigiWx sites map
Weather Radar
NOAA Forecast
 
Airport IQ 5010
(S59) Libby
(6S5) Ravalli County
 
about DigiWx
 
FAA Disclaimer: The data displayed is for advisory purposes only and is not to be used for flight planning or operations. For official data, please call 406-846-1177 to hear the current automated AWOS voice message.
  METAR 38S 211641Z AUTO 31014G22KT 7SM 08/05 A2980